Time,TemperatureF,DewpointF,PressureIn,WindDirection,WindDirectionDegrees,WindSpeedMPH,WindSpeedGustMPH,Humidity,HourlyPrecipIn,Conditions,Clouds,dailyrainin,SolarRadiationWatts/m^2,SoftwareType,DateUTC
2013-07-12 00:06:00,68.0,67.0,29.96,NNE,26,0.0,0.0,95,0.00,,,0.00,0,weatherlink.com 1.10,2013-07-12 04:06:00,
2013-07-12 00:21:00,67.6,66.0,29.95,NNE,26,0.0,0.0,95,0.00,,,0.00,0,weatherlink.com 1.10,2013-07-12 04:21:00,
2013-07-12 00:36:00,67.6,66.0,29.95,NNE,26,0.0,0.0,95,0.00,,,0.00,0,weatherlink.com 1.10,2013-07-12 04:36:00,
2013-07-12 00:51:00,67.5,66.0,29.95,NNE,26,0.0,0.0,95,0.00,,,0.00,0,weatherlink.com 1.10,2013-07-12 04:51:00,
2013-07-12 01:06:00,67.4,66.0,29.96,West,267,0.0,2.0,95,0.00,,,0.00,0,weatherlink.com 1.10,2013-07-12 05:06:00,
2013-07-12 01:21:00,67.5,66.0,29.96,South,190,1.0,2.0,95,0.00,,,0.00,0,weatherlink.com 1.10,2013-07-12 05:21:00,
2013-07-12 01:36:00,67.8,66.0,29.96,South,186,0.0,1.0,95,0.00,,,0.00,0,weatherlink.com 1.10,2013-07-12 05:36:00,
2013-07-12 01:51:00,68.1,67.0,29.97,South,186,0.0,1.0,95,0.00,,,0.00,0,weatherlink.com 1.10,2013-07-12 05:51:00,
2013-07-12 02:06:00,68.4,67.0,29.97,South,186,0.0,0.0,95,0.00,,,0.00,0,weatherlink.com 1.10,2013-07-12 06:06:00,
2013-07-12 02:21:00,68.5,67.0,29.97,SSW,204,0.0,1.0,94,0.00,,,0.00,0,weatherlink.com 1.10,2013-07-12 06:21:00,
2013-07-12 02:36:00,68.3,66.0,29.97,SSW,204,0.0,0.0,93,0.00,,,0.00,0,weatherlink.com 1.10,2013-07-12 06:36:00,
2013-07-12 02:51:00,68.2,66.0,29.98,SSW,204,0.0,0.0,93,0.00,,,0.00,0,weatherlink.com 1.10,2013-07-12 06:51:00,
2013-07-12 03:06:00,68.2,67.0,29.98,SSW,204,0.0,1.0,94,0.00,,,0.00,0,weatherlink.com 1.10,2013-07-12 07:06:00,
2013-07-12 03:21:00,68.1,66.0,29.98,SW,227,0.0,1.0,93,0.00,,,0.00,0,weatherlink.com 1.10,2013-07-12 07:21:00,
2013-07-12 03:36:00,68.2,66.0,29.98,WNW,286,0.0,2.0,93,0.00,,,0.00,0,weatherlink.com 1.10,2013-07-12 07:36:00,
2013-07-12 03:51:00,68.1,66.0,29.99,WNW,286,0.0,2.0,92,0.00,,,0.00,0,weatherlink.com 1.10,2013-07-12 07:51:00,
2013-07-12 04:06:00,68.2,66.0,29.99,West,268,0.0,1.0,92,0.00,,,0.00,0,weatherlink.com 1.10,2013-07-12 08:06:00,
2013-07-12 04:21:00,68.2,66.0,29.99,West,273,0.0,1.0,93,0.00,,,0.00,0,weatherlink.com 1.10,2013-07-12 08:21:00,
2013-07-12 04:36:00,68.3,66.0,30.00,West,272,0.0,2.0,93,0.00,,,0.00,0,weatherlink.com 1.10,2013-07-12 08:36:00,
2013-07-12 04:51:00,68.4,66.0,30.00,West,265,1.0,2.0,93,0.00,,,0.00,0,weatherlink.com 1.10,2013-07-12 08:51:00,
2013-07-12 05:06:00,68.3,66.0,30.01,West,270,0.0,2.0,93,0.00,,,0.00,0,weatherlink.com 1.10,2013-07-12 09:06:00,
2013-07-12 05:21:00,68.3,67.0,30.01,NW,305,0.0,4.0,94,0.00,,,0.00,0,weatherlink.com 1.10,2013-07-12 09:21:00,
2013-07-12 05:36:00,68.3,67.0,30.02,West,265,0.0,2.0,94,0.00,,,0.00,0,weatherlink.com 1.10,2013-07-12 09:36:00,
2013-07-12 05:51:00,68.4,66.0,30.01,NW,306,1.0,2.0,93,0.00,,,0.00,11,weatherlink.com 1.10,2013-07-12 09:51:00,
2013-07-12 06:06:00,68.4,66.0,30.02,South,178,1.0,3.0,93,0.00,,,0.00,19,weatherlink.com 1.10,2013-07-12 10:06:00,
2013-07-12 06:21:00,68.6,67.0,30.03,WSW,252,0.0,3.0,93,0.00,,,0.00,25,weatherlink.com 1.10,2013-07-12 10:21:00,
2013-07-12 06:36:00,68.8,67.0,30.03,SSW,207,0.0,3.0,93,0.00,,,0.00,30,weatherlink.com 1.10,2013-07-12 10:36:00,
2013-07-12 06:51:00,68.9,67.0,30.04,West,263,1.0,5.0,92,0.00,,,0.00,39,weatherlink.com 1.10,2013-07-12 10:51:00,
2013-07-12 07:06:00,69.1,67.0,30.05,NNW,328,0.0,7.0,92,0.00,,,0.00,47,weatherlink.com 1.10,2013-07-12 11:06:00,
2013-07-12 07:21:00,69.4,67.0,30.05,North,355,0.0,3.0,91,0.00,,,0.00,65,weatherlink.com 1.10,2013-07-12 11:21:00,
2013-07-12 07:36:00,69.9,67.0,30.05,West,261,1.0,7.0,91,0.00,,,0.00,70,weatherlink.com 1.10,2013-07-12 11:36:00,
2013-07-12 07:51:00,70.3,67.0,30.06,NW,306,3.0,5.0,90,0.00,,,0.00,114,weatherlink.com 1.10,2013-07-12 11:51:00,
2013-07-12 08:07:00,71.1,67.0,30.06,WNW,300,1.0,7.0,88,0.00,,,0.00,113,weatherlink.com 1.10,2013-07-12 12:07:00,
2013-07-12 08:22:00,71.5,68.0,30.07,NW,306,3.0,4.0,88,0.00,,,0.00,135,weatherlink.com 1.10,2013-07-12 12:22:00,
2013-07-12 08:37:00,72.1,68.0,30.07,SW,218,0.0,5.0,87,0.00,,,0.00,174,weatherlink.com 1.10,2013-07-12 12:37:00,
2013-07-12 08:52:00,73.2,69.0,30.07,WNW,286,2.0,7.0,85,0.00,,,0.00,197,weatherlink.com 1.10,2013-07-12 12:52:00,
2013-07-12 09:07:00,73.9,69.0,30.08,NNW,333,2.0,5.0,84,0.00,,,0.00,149,weatherlink.com 1.10,2013-07-12 13:07:00,
2013-07-12 09:22:00,73.9,68.0,30.08,NE,36,1.0,4.0,81,0.00,,,0.00,188,weatherlink.com 1.10,2013-07-12 13:22:00,
2013-07-12 09:37:00,74.1,67.0,30.08,SE,128,2.0,5.0,79,0.00,,,0.00,243,weatherlink.com 1.10,2013-07-12 13:37:00,
2013-07-12 09:52:00,74.7,68.0,30.08,South,178,2.0,6.0,79,0.00,,,0.00,163,weatherlink.com 1.10,2013-07-12 13:52:00,
2013-07-12 10:07:00,76.2,71.0,30.08,NW,319,0.0,3.0,84,0.00,,,0.00,673,weatherlink.com 1.10,2013-07-12 14:07:00,
2013-07-12 10:22:00,78.0,71.0,30.09,WNW,297,0.0,5.0,78,0.00,,,0.00,513,weatherlink.com 1.10,2013-07-12 14:22:00,
2013-07-12 10:37:00,78.3,71.0,30.09,NW,321,2.0,5.0,78,0.00,,,0.00,323,weatherlink.com 1.10,2013-07-12 14:37:00,
2013-07-12 10:52:00,79.0,70.0,30.10,NW,319,0.0,7.0,75,0.00,,,0.00,371,weatherlink.com 1.10,2013-07-12 14:52:00,
2013-07-12 11:07:00,78.6,73.0,30.10,West,278,0.0,3.0,82,0.00,,,0.00,592,weatherlink.com 1.10,2013-07-12 15:07:00,
2013-07-12 11:22:00,80.1,72.0,30.10,North,355,0.0,5.0,75,0.00,,,0.00,294,weatherlink.com 1.10,2013-07-12 15:22:00,
2013-07-12 11:37:00,80.7,72.0,30.10,NNW,330,2.0,5.0,74,0.00,,,0.00,480,weatherlink.com 1.10,2013-07-12 15:37:00,
2013-07-12 11:52:00,81.6,73.0,30.10,WNW,300,0.0,4.0,75,0.00,,,0.00,585,weatherlink.com 1.10,2013-07-12 15:52:00,
2013-07-12 12:07:00,83.4,74.0,30.10,NW,310,0.0,5.0,74,0.00,,,0.00,721,weatherlink.com 1.10,2013-07-12 16:07:00,
2013-07-12 12:22:00,84.1,73.0,30.10,NW,313,3.0,5.0,70,0.00,,,0.00,411,weatherlink.com 1.10,2013-07-12 16:22:00,
2013-07-12 12:37:00,83.2,72.0,30.10,NNW,347,0.0,6.0,68,0.00,,,0.00,1150,weatherlink.com 1.10,2013-07-12 16:37:00,
2013-07-12 12:52:00,83.0,73.0,30.10,North,355,0.0,3.0,72,0.00,,,0.00,369,weatherlink.com 1.10,2013-07-12 16:52:00,
2013-07-12 13:07:00,84.6,72.0,30.09,ESE,121,2.0,6.0,67,0.00,,,0.00,350,weatherlink.com 1.10,2013-07-12 17:07:00,
2013-07-12 13:22:00,83.9,73.0,30.10,ENE,68,1.0,4.0,69,0.00,,,0.00,315,weatherlink.com 1.10,2013-07-12 17:22:00,
2013-07-12 14:07:00,82.7,73.0,30.10,SW,234,2.0,6.0,72,0.00,,,0.00,350,weatherlink.com 1.10,2013-07-12 18:07:00,
2013-07-12 14:22:00,83.3,74.0,30.10,ESE,108,1.0,4.0,73,0.00,,,0.00,527,weatherlink.com 1.10,2013-07-12 18:22:00,
2013-07-12 14:37:00,84.9,75.0,30.10,NNW,328,2.0,3.0,72,0.00,,,0.00,322,weatherlink.com 1.10,2013-07-12 18:37:00,
2013-07-12 15:07:00,83.1,72.0,30.11,WNW,300,2.0,3.0,70,0.00,,,0.00,257,weatherlink.com 1.10,2013-07-12 19:07:00,
2013-07-12 15:22:00,81.2,72.0,30.11,NW,307,1.0,7.0,73,0.00,,,0.00,271,weatherlink.com 1.10,2013-07-12 19:22:00,
2013-07-12 15:37:00,80.0,71.0,30.11,NNW,344,0.0,7.0,75,0.00,,,0.00,250,weatherlink.com 1.10,2013-07-12 19:37:00,
2013-07-12 15:52:00,80.4,71.0,30.10,North,360,4.0,4.0,74,0.00,,,0.00,290,weatherlink.com 1.10,2013-07-12 19:52:00,
2013-07-12 16:07:00,79.7,70.0,30.11,WNW,302,2.0,8.0,72,0.00,,,0.00,209,weatherlink.com 1.10,2013-07-12 20:07:00,
2013-07-12 16:22:00,78.5,70.0,30.11,West,269,3.0,4.0,75,0.00,,,0.00,144,weatherlink.com 1.10,2013-07-12 20:22:00,
2013-07-12 16:37:00,78.1,70.0,30.11,WNW,302,0.0,3.0,76,0.00,,,0.00,123,weatherlink.com 1.10,2013-07-12 20:37:00,
2013-07-12 16:52:00,77.7,69.0,30.12,NW,318,0.0,4.0,75,0.00,,,0.00,100,weatherlink.com 1.10,2013-07-12 20:52:00,
2013-07-12 17:07:00,76.6,69.0,30.12,SW,216,3.0,3.0,77,0.00,,,0.00,62,weatherlink.com 1.10,2013-07-12 21:07:00,
2013-07-12 17:22:00,75.2,68.0,30.12,NNE,14,2.0,3.0,77,0.00,,,0.00,74,weatherlink.com 1.10,2013-07-12 21:22:00,
2013-07-12 17:37:00,74.2,68.0,30.12,NW,311,0.0,5.0,80,0.00,,,0.00,58,weatherlink.com 1.10,2013-07-12 21:37:00,
2013-07-12 17:52:00,74.0,68.0,30.12,West,265,0.0,4.0,80,0.00,,,0.00,51,weatherlink.com 1.10,2013-07-12 21:52:00,
2013-07-12 18:08:00,73.4,67.0,30.13,WNW,291,0.0,6.0,81,0.00,,,0.00,35,weatherlink.com 1.10,2013-07-12 22:08:00,
2013-07-12 18:23:00,72.8,67.0,30.13,NNW,329,2.0,3.0,81,0.00,,,0.00,25,weatherlink.com 1.10,2013-07-12 22:23:00,
2013-07-12 18:38:00,72.3,67.0,30.13,NW,317,1.0,4.0,83,0.00,,,0.00,30,weatherlink.com 1.10,2013-07-12 22:38:00,
2013-07-12 18:53:00,71.7,66.0,30.14,West,264,4.0,7.0,82,0.00,,,0.00,16,weatherlink.com 1.10,2013-07-12 22:53:00,
2013-07-12 19:08:00,71.1,65.0,30.14,WNW,282,1.0,5.0,81,0.00,,,0.00,16,weatherlink.com 1.10,2013-07-12 23:08:00,
2013-07-12 19:38:00,70.7,65.0,30.14,WNW,300,0.0,4.0,81,0.00,,,0.00,9,weatherlink.com 1.10,2013-07-12 23:38:00,
2013-07-12 19:53:00,70.5,65.0,30.14,NE,37,3.0,5.0,83,0.00,,,0.00,0,weatherlink.com 1.10,2013-07-12 23:53:00,
2013-07-12 20:08:00,70.3,64.0,30.14,North,5,0.0,5.0,81,0.00,,,0.00,0,weatherlink.com 1.10,2013-07-13 00:08:00,
2013-07-12 20:23:00,70.1,64.0,30.15,SE,144,2.0,5.0,81,0.00,,,0.00,0,weatherlink.com 1.10,2013-07-13 00:23:00,
2013-07-12 21:08:00,69.5,63.0,30.16,WSW,241,0.0,7.0,80,0.00,,,0.00,0,weatherlink.com 1.10,2013-07-13 01:08:00,
2013-07-12 21:23:00,69.4,63.0,30.17,WSW,245,0.0,4.0,81,0.00,,,0.00,0,weatherlink.com 1.10,2013-07-13 01:23:00,
2013-07-12 21:38:00,69.1,63.0,30.18,WNW,292,1.0,3.0,80,0.00,,,0.00,0,weatherlink.com 1.10,2013-07-13 01:38:00,
2013-07-12 22:08:00,69.0,63.0,30.18,WNW,290,0.0,2.0,80,0.00,,,0.00,0,weatherlink.com 1.10,2013-07-13 02:08:00,
2013-07-12 22:23:00,68.8,63.0,30.18,WSW,243,0.0,3.0,81,0.00,,,0.00,0,weatherlink.com 1.10,2013-07-13 02:23:00,
2013-07-12 22:38:00,68.7,63.0,30.18,West,275,0.0,3.0,82,0.00,,,0.00,0,weatherlink.com 1.10,2013-07-13 02:38:00,
2013-07-12 22:53:00,68.6,63.0,30.18,NE,48,1.0,2.0,82,0.00,,,0.00,0,weatherlink.com 1.10,2013-07-13 02:53:00,
2013-07-12 23:08:00,68.6,63.0,30.19,West,268,0.0,2.0,83,0.00,,,0.00,0,weatherlink.com 1.10,2013-07-13 03:08:00,
2013-07-12 23:23:00,68.5,64.0,30.19,East,86,0.0,4.0,84,0.00,,,0.00,0,weatherlink.com 1.10,2013-07-13 03:23:00,
2013-07-12 23:38:00,68.4,63.0,30.19,SSW,213,3.0,3.0,84,0.00,,,0.00,0,weatherlink.com 1.10,2013-07-13 03:38:00,